PTTBR SBJV-SBPK
Flight info
| Callsign | PTTBR |
|---|---|
| Flight time | 1h 1m |
| Altitude | 43000 |
| Route | ARMIM UZ141 UMDEX UZ38 PALEL UM424 PTS |
| Aircraft | C750/M-SBDE3FGHRWXY/S |
Departure
| Time | 2026-05-08 23:13 |
|---|---|
| Airport | Lauro Carneiro de Loyola Airport (SBJV) |
Arrival
| Time | 2026-05-09 00:14 |
|---|---|
| Airport | João Simões Lopes Neto International Airport (SBPK) |
| Time | Latitude | Longitude | Altitude | Speed | Heading |
|---|---|---|---|---|---|
| 2026-05-08 23:05 | -26.22412 | -48.80057 | 18 ft | 0 kts | 37° |
| 2026-05-08 23:10 | -26.22411 | -48.80056 | 18 ft | 2 kts | 37° |
| 2026-05-08 23:10 | -26.22383 | -48.80040 | 18 ft | 6 kts | 7° |
| 2026-05-08 23:10 | -26.22331 | -48.80023 | 19 ft | 9 kts | 30° |
| 2026-05-08 23:11 | -26.22278 | -48.79987 | 21 ft | 9 kts | 359° |
| 2026-05-08 23:11 | -26.22225 | -48.80044 | 22 ft | 13 kts | 305° |
| 2026-05-08 23:11 | -26.22164 | -48.80138 | 22 ft | 13 kts | 308° |
| 2026-05-08 23:11 | -26.22092 | -48.80222 | 21 ft | 16 kts | 337° |
| 2026-05-08 23:12 | -26.22072 | -48.80256 | 20 ft | 4 kts | 126° |
| 2026-05-08 23:12 | -26.22073 | -48.80255 | 20 ft | 0 kts | 123° |
| 2026-05-08 23:12 | -26.22073 | -48.80254 | 20 ft | 1 kts | 123° |
| 2026-05-08 23:12 | -26.22290 | -48.79949 | 22 ft | 108 kts | 129° |
| 2026-05-08 23:13 | -26.22895 | -48.79114 | 225 ft | 154 kts | 129° |
| 2026-05-08 23:13 | -26.23553 | -48.78200 | 999 ft | 151 kts | 129° |
| 2026-05-08 23:13 | -26.24262 | -48.77231 | 1445 ft | 176 kts | 131° |
| 2026-05-08 23:13 | -26.25390 | -48.76455 | 1739 ft | 210 kts | 164° |
| 2026-05-08 23:14 | -26.26940 | -48.76502 | 2170 ft | 242 kts | 199° |
| 2026-05-08 23:14 | -26.28275 | -48.77722 | 2827 ft | 257 kts | 236° |
| 2026-05-08 23:14 | -26.29116 | -48.79442 | 4101 ft | 252 kts | 244° |
| 2026-05-08 23:14 | -26.29916 | -48.81201 | 5142 ft | 256 kts | 245° |
| 2026-05-08 23:15 | -26.30755 | -48.82967 | 6114 ft | 262 kts | 246° |
| 2026-05-08 23:15 | -26.31631 | -48.84790 | 6985 ft | 269 kts | 247° |
| 2026-05-08 23:15 | -26.32510 | -48.86638 | 7999 ft | 272 kts | 248° |
| 2026-05-08 23:15 | -26.33397 | -48.88520 | 9026 ft | 277 kts | 249° |
| 2026-05-08 23:16 | -26.34306 | -48.90437 | 9962 ft | 282 kts | 249° |
| 2026-05-08 23:16 | -26.35249 | -48.92429 | 10416 ft | 305 kts | 248° |
| 2026-05-08 23:16 | -26.36288 | -48.94646 | 10541 ft | 338 kts | 248° |
| 2026-05-08 23:16 | -26.37415 | -48.97009 | 11030 ft | 349 kts | 247° |
| 2026-05-08 23:17 | -26.38562 | -48.99388 | 11928 ft | 348 kts | 247° |
| 2026-05-08 23:17 | -26.39691 | -49.01784 | 12627 ft | 351 kts | 248° |
| 2026-05-08 23:17 | -26.40826 | -49.04218 | 13294 ft | 355 kts | 248° |
| 2026-05-08 23:17 | -26.41983 | -49.06659 | 13983 ft | 357 kts | 248° |
| 2026-05-08 23:18 | -26.43157 | -49.09124 | 14609 ft | 362 kts | 248° |
| 2026-05-08 23:18 | -26.44336 | -49.11622 | 15262 ft | 365 kts | 248° |
| 2026-05-08 23:18 | -26.45523 | -49.14142 | 15941 ft | 368 kts | 248° |
| 2026-05-08 23:18 | -26.46721 | -49.16676 | 16636 ft | 371 kts | 248° |
| 2026-05-08 23:19 | -26.47927 | -49.19235 | 17339 ft | 374 kts | 248° |
| 2026-05-08 23:19 | -26.49140 | -49.21814 | 17997 ft | 377 kts | 248° |
| 2026-05-08 23:19 | -26.50367 | -49.24420 | 18662 ft | 380 kts | 248° |
| 2026-05-08 23:19 | -26.51713 | -49.26986 | 19317 ft | 390 kts | 242° |
| 2026-05-08 23:20 | -26.53454 | -49.29353 | 20055 ft | 399 kts | 233° |
| 2026-05-08 23:20 | -26.55558 | -49.31442 | 20744 ft | 411 kts | 224° |
| 2026-05-08 23:20 | -26.58005 | -49.33162 | 21442 ft | 422 kts | 214° |
| 2026-05-08 23:20 | -26.60745 | -49.34435 | 22093 ft | 433 kts | 204° |
| 2026-05-08 23:21 | -26.63686 | -49.35179 | 22689 ft | 445 kts | 195° |
| 2026-05-08 23:21 | -26.66807 | -49.35685 | 23281 ft | 450 kts | 194° |
| 2026-05-08 23:21 | -26.69910 | -49.36202 | 23968 ft | 453 kts | 195° |
| 2026-05-08 23:21 | -26.73021 | -49.36736 | 24518 ft | 454 kts | 194° |
| 2026-05-08 23:22 | -26.76119 | -49.37262 | 24940 ft | 460 kts | 195° |
| 2026-05-08 23:22 | -26.79289 | -49.37793 | 25592 ft | 463 kts | 194° |
| 2026-05-08 23:22 | -26.82492 | -49.38316 | 26223 ft | 465 kts | 194° |
| 2026-05-08 23:22 | -26.85707 | -49.38855 | 26760 ft | 468 kts | 195° |
| 2026-05-08 23:23 | -26.88937 | -49.39406 | 27200 ft | 472 kts | 195° |
| 2026-05-08 23:23 | -26.92189 | -49.39947 | 27697 ft | 473 kts | 195° |
| 2026-05-08 23:23 | -26.94406 | -49.40322 | 27975 ft | 479 kts | 195° |
| 2026-05-08 23:23 | -26.97695 | -49.40877 | 28531 ft | 480 kts | 194° |
| 2026-05-08 23:24 | -27.02089 | -49.41621 | 29065 ft | 486 kts | 195° |
| 2026-05-08 23:24 | -27.04352 | -49.42005 | 29400 ft | 489 kts | 195° |
| 2026-05-08 23:24 | -27.07713 | -49.42569 | 29931 ft | 489 kts | 195° |
| 2026-05-08 23:24 | -27.11095 | -49.43144 | 30333 ft | 493 kts | 195° |
| 2026-05-08 23:25 | -27.14497 | -49.43729 | 30713 ft | 497 kts | 195° |
| 2026-05-08 23:25 | -27.17921 | -49.44309 | 31282 ft | 497 kts | 195° |
| 2026-05-08 23:25 | -27.21337 | -49.44881 | 31861 ft | 496 kts | 195° |
| 2026-05-08 23:25 | -27.24752 | -49.45461 | 32350 ft | 497 kts | 195° |
| 2026-05-08 23:26 | -27.28167 | -49.46045 | 32886 ft | 497 kts | 196° |
| 2026-05-08 23:26 | -27.31589 | -49.46629 | 33386 ft | 497 kts | 196° |
| 2026-05-08 23:26 | -27.35004 | -49.47206 | 33981 ft | 496 kts | 196° |
| 2026-05-08 23:26 | -27.38371 | -49.47778 | 34487 ft | 497 kts | 196° |
| 2026-05-08 23:27 | -27.41793 | -49.48365 | 34998 ft | 497 kts | 196° |
| 2026-05-08 23:27 | -27.45210 | -49.48949 | 35543 ft | 497 kts | 196° |
| 2026-05-08 23:27 | -27.48626 | -49.49529 | 36070 ft | 496 kts | 196° |
| 2026-05-08 23:27 | -27.52023 | -49.50152 | 36547 ft | 493 kts | 199° |
| 2026-05-08 23:28 | -27.55288 | -49.51224 | 37004 ft | 483 kts | 209° |
| 2026-05-08 23:28 | -27.58285 | -49.52816 | 37543 ft | 472 kts | 218° |
| 2026-05-08 23:28 | -27.61018 | -49.54784 | 38096 ft | 463 kts | 223° |
| 2026-05-08 23:28 | -27.63690 | -49.56800 | 38671 ft | 462 kts | 223° |
| 2026-05-08 23:29 | -27.66380 | -49.58786 | 39136 ft | 462 kts | 222° |
| 2026-05-08 23:29 | -27.69073 | -49.60765 | 39555 ft | 462 kts | 222° |
| 2026-05-08 23:29 | -27.71752 | -49.62755 | 40037 ft | 460 kts | 223° |
| 2026-05-08 23:29 | -27.74414 | -49.64744 | 40509 ft | 459 kts | 222° |
| 2026-05-08 23:30 | -27.77120 | -49.66656 | 40990 ft | 457 kts | 221° |
| 2026-05-08 23:30 | -27.79797 | -49.68563 | 41485 ft | 453 kts | 222° |
| 2026-05-08 23:30 | -27.82450 | -49.70472 | 41950 ft | 451 kts | 222° |
| 2026-05-08 23:30 | -27.85096 | -49.72364 | 42383 ft | 449 kts | 222° |
| 2026-05-08 23:31 | -27.87736 | -49.74238 | 42800 ft | 446 kts | 222° |
| 2026-05-08 23:31 | -27.90374 | -49.76122 | 42840 ft | 453 kts | 222° |
| 2026-05-08 23:31 | -27.95783 | -49.80006 | 42852 ft | 468 kts | 221° |
| 2026-05-08 23:32 | -28.01371 | -49.83991 | 42867 ft | 481 kts | 221° |
| 2026-05-08 23:32 | -28.07072 | -49.88085 | 42867 ft | 491 kts | 221° |
| 2026-05-08 23:33 | -28.12864 | -49.92231 | 42869 ft | 493 kts | 221° |
| 2026-05-08 23:33 | -28.18661 | -49.96401 | 42861 ft | 493 kts | 221° |
| 2026-05-08 23:34 | -28.24454 | -50.00566 | 42860 ft | 493 kts | 221° |
| 2026-05-08 23:34 | -28.30204 | -50.04709 | 42867 ft | 493 kts | 221° |
| 2026-05-08 23:35 | -28.36009 | -50.08897 | 42868 ft | 495 kts | 221° |
| 2026-05-08 23:35 | -28.41822 | -50.13092 | 42868 ft | 495 kts | 221° |
| 2026-05-08 23:36 | -28.47623 | -50.17292 | 42881 ft | 495 kts | 221° |
| 2026-05-08 23:36 | -28.53438 | -50.21500 | 42880 ft | 497 kts | 221° |
| 2026-05-08 23:37 | -28.59263 | -50.25724 | 42877 ft | 496 kts | 221° |
| 2026-05-08 23:37 | -28.65091 | -50.29957 | 42875 ft | 498 kts | 221° |
| 2026-05-08 23:38 | -28.70934 | -50.34204 | 42881 ft | 498 kts | 221° |
| 2026-05-08 23:38 | -28.76513 | -50.38763 | 42886 ft | 492 kts | 226° |
| 2026-05-08 23:39 | -28.82008 | -50.43430 | 42896 ft | 493 kts | 226° |
| 2026-05-08 23:39 | -28.87506 | -50.48131 | 42890 ft | 495 kts | 226° |
| 2026-05-08 23:40 | -28.93009 | -50.52834 | 42886 ft | 494 kts | 226° |
| 2026-05-08 23:40 | -28.98505 | -50.57537 | 42889 ft | 494 kts | 226° |
| 2026-05-08 23:41 | -29.04004 | -50.62254 | 42889 ft | 495 kts | 226° |
| 2026-05-08 23:41 | -29.09519 | -50.66985 | 42894 ft | 496 kts | 226° |
| 2026-05-08 23:42 | -29.14446 | -50.72267 | 42881 ft | 477 kts | 239° |
| 2026-05-08 23:42 | -29.18612 | -50.78155 | 42891 ft | 477 kts | 240° |
| 2026-05-08 23:43 | -29.22821 | -50.84058 | 42890 ft | 478 kts | 240° |
| 2026-05-08 23:43 | -29.26998 | -50.89972 | 42888 ft | 476 kts | 240° |
| 2026-05-08 23:44 | -29.31176 | -50.95875 | 42878 ft | 478 kts | 240° |
| 2026-05-08 23:44 | -29.35333 | -51.01763 | 42889 ft | 479 kts | 240° |
| 2026-05-08 23:45 | -29.39528 | -51.07708 | 42895 ft | 479 kts | 240° |
| 2026-05-08 23:45 | -29.43985 | -51.13473 | 42870 ft | 494 kts | 231° |
| 2026-05-08 23:46 | -29.46792 | -51.15904 | 42876 ft | 507 kts | 222° |
| 2026-05-08 23:46 | -29.49887 | -51.17832 | 42883 ft | 520 kts | 213° |
| 2026-05-08 23:46 | -29.53367 | -51.19299 | 42878 ft | 534 kts | 205° |
| 2026-05-08 23:46 | -29.57036 | -51.20192 | 42874 ft | 545 kts | 196° |
| 2026-05-08 23:47 | -29.64688 | -51.20203 | 42879 ft | 565 kts | 179° |
| 2026-05-08 23:47 | -29.72505 | -51.18359 | 42897 ft | 571 kts | 173° |
| 2026-05-08 23:48 | -29.80283 | -51.16692 | 42876 ft | 565 kts | 181° |
| 2026-05-08 23:48 | -29.87992 | -51.16609 | 42886 ft | 555 kts | 190° |
| 2026-05-08 23:49 | -29.95742 | -51.17047 | 42887 ft | 551 kts | 193° |
| 2026-05-08 23:49 | -29.99432 | -51.17745 | 42873 ft | 539 kts | 202° |
| 2026-05-08 23:49 | -30.03019 | -51.19045 | 42879 ft | 527 kts | 211° |
| 2026-05-08 23:50 | -30.09374 | -51.23000 | 42902 ft | 517 kts | 220° |
| 2026-05-08 23:50 | -30.15583 | -51.27128 | 42894 ft | 520 kts | 218° |
| 2026-05-08 23:51 | -30.21851 | -51.31271 | 42890 ft | 518 kts | 220° |
| 2026-05-08 23:51 | -30.28079 | -51.35471 | 42892 ft | 520 kts | 219° |
| 2026-05-08 23:52 | -30.34345 | -51.39666 | 42893 ft | 520 kts | 219° |
| 2026-05-08 23:52 | -30.40611 | -51.43849 | 42895 ft | 520 kts | 219° |
| 2026-05-08 23:53 | -30.46869 | -51.48035 | 42898 ft | 520 kts | 219° |
| 2026-05-08 23:53 | -30.53131 | -51.52230 | 42808 ft | 511 kts | 219° |
| 2026-05-08 23:54 | -30.56188 | -51.54255 | 42044 ft | 500 kts | 219° |
| 2026-05-08 23:54 | -30.59190 | -51.56226 | 41223 ft | 492 kts | 220° |
| 2026-05-08 23:54 | -30.62157 | -51.58162 | 40329 ft | 487 kts | 220° |
| 2026-05-08 23:55 | -30.68004 | -51.61942 | 38579 ft | 475 kts | 222° |
| 2026-05-08 23:55 | -30.70881 | -51.63784 | 37713 ft | 469 kts | 222° |
| 2026-05-08 23:55 | -30.73736 | -51.65602 | 36844 ft | 467 kts | 222° |
| 2026-05-08 23:55 | -30.76587 | -51.67418 | 35985 ft | 468 kts | 221° |
| 2026-05-08 23:56 | -30.79447 | -51.69246 | 35120 ft | 472 kts | 221° |
| 2026-05-08 23:56 | -30.82346 | -51.71113 | 34263 ft | 480 kts | 221° |
| 2026-05-08 23:56 | -30.85217 | -51.73104 | 33385 ft | 477 kts | 226° |
| 2026-05-08 23:56 | -30.87748 | -51.75485 | 32505 ft | 460 kts | 236° |
| 2026-05-08 23:57 | -30.89834 | -51.78200 | 31627 ft | 441 kts | 245° |
| 2026-05-08 23:57 | -30.91450 | -51.81159 | 30756 ft | 426 kts | 252° |
| 2026-05-08 23:57 | -30.92821 | -51.84201 | 29866 ft | 427 kts | 250° |
| 2026-05-08 23:57 | -30.94873 | -51.86820 | 28905 ft | 452 kts | 231° |
| 2026-05-08 23:58 | -30.97534 | -51.88858 | 28030 ft | 461 kts | 222° |
| 2026-05-08 23:58 | -31.00375 | -51.90618 | 27183 ft | 463 kts | 219° |
| 2026-05-08 23:58 | -31.03217 | -51.92241 | 26343 ft | 461 kts | 218° |
| 2026-05-08 23:58 | -31.06110 | -51.93847 | 25480 ft | 458 kts | 217° |
| 2026-05-08 23:59 | -31.08979 | -51.95426 | 24612 ft | 454 kts | 217° |
| 2026-05-08 23:59 | -31.11827 | -51.96993 | 23742 ft | 451 kts | 217° |
| 2026-05-08 23:59 | -31.14653 | -51.98550 | 22865 ft | 446 kts | 217° |
| 2026-05-08 23:59 | -31.17423 | -52.00076 | 21994 ft | 437 kts | 217° |
| 2026-05-09 00:00 | -31.20145 | -52.01581 | 21121 ft | 428 kts | 217° |
| 2026-05-09 00:00 | -31.22813 | -52.03052 | 20241 ft | 421 kts | 217° |
| 2026-05-09 00:00 | -31.25440 | -52.04501 | 19376 ft | 413 kts | 217° |
| 2026-05-09 00:00 | -31.28013 | -52.05928 | 18505 ft | 406 kts | 217° |
| 2026-05-09 00:01 | -31.30533 | -52.07334 | 17631 ft | 398 kts | 217° |
| 2026-05-09 00:01 | -31.33012 | -52.08725 | 16758 ft | 391 kts | 217° |
| 2026-05-09 00:01 | -31.35437 | -52.10099 | 15886 ft | 384 kts | 217° |
| 2026-05-09 00:01 | -31.37767 | -52.11529 | 15009 ft | 372 kts | 220° |
| 2026-05-09 00:02 | -31.39956 | -52.13081 | 14134 ft | 364 kts | 222° |
| 2026-05-09 00:02 | -31.42068 | -52.14662 | 13262 ft | 357 kts | 223° |
| 2026-05-09 00:02 | -31.44123 | -52.16235 | 12390 ft | 350 kts | 223° |
| 2026-05-09 00:02 | -31.46106 | -52.17774 | 11522 ft | 336 kts | 223° |
| 2026-05-09 00:03 | -31.48012 | -52.19267 | 10642 ft | 324 kts | 223° |
| 2026-05-09 00:03 | -31.49814 | -52.20771 | 9867 ft | 311 kts | 225° |
| 2026-05-09 00:03 | -31.51421 | -52.22261 | 9241 ft | 289 kts | 226° |
| 2026-05-09 00:03 | -31.52966 | -52.23783 | 8610 ft | 287 kts | 227° |
| 2026-05-09 00:04 | -31.54450 | -52.25290 | 7979 ft | 279 kts | 227° |
| 2026-05-09 00:04 | -31.55897 | -52.26769 | 7345 ft | 272 kts | 227° |
| 2026-05-09 00:04 | -31.57307 | -52.28212 | 6713 ft | 267 kts | 227° |
| 2026-05-09 00:04 | -31.58691 | -52.29630 | 6134 ft | 262 kts | 227° |
| 2026-05-09 00:05 | -31.60042 | -52.31008 | 5675 ft | 253 kts | 227° |
| 2026-05-09 00:05 | -31.61294 | -52.32393 | 5223 ft | 242 kts | 231° |
| 2026-05-09 00:05 | -31.62398 | -52.33828 | 4769 ft | 234 kts | 233° |
| 2026-05-09 00:05 | -31.63451 | -52.35250 | 4315 ft | 228 kts | 234° |
| 2026-05-09 00:06 | -31.64483 | -52.36644 | 3861 ft | 226 kts | 233° |
| 2026-05-09 00:06 | -31.65503 | -52.38024 | 3410 ft | 222 kts | 233° |
| 2026-05-09 00:06 | -31.66502 | -52.39380 | 2994 ft | 217 kts | 234° |
| 2026-05-09 00:06 | -31.67459 | -52.40661 | 2991 ft | 204 kts | 233° |
| 2026-05-09 00:07 | -31.68384 | -52.41910 | 2990 ft | 203 kts | 234° |
| 2026-05-09 00:07 | -31.69316 | -52.43154 | 2998 ft | 202 kts | 233° |
| 2026-05-09 00:07 | -31.70247 | -52.44393 | 2989 ft | 202 kts | 234° |
| 2026-05-09 00:07 | -31.71173 | -52.45615 | 2992 ft | 199 kts | 233° |
| 2026-05-09 00:08 | -31.71778 | -52.46421 | 2997 ft | 199 kts | 233° |
| 2026-05-09 00:08 | -31.72688 | -52.47649 | 3001 ft | 200 kts | 234° |
| 2026-05-09 00:08 | -31.73610 | -52.48891 | 2840 ft | 203 kts | 233° |
| 2026-05-09 00:08 | -31.74536 | -52.50106 | 2558 ft | 198 kts | 228° |
| 2026-05-09 00:09 | -31.75709 | -52.50948 | 2378 ft | 196 kts | 208° |
| 2026-05-09 00:09 | -31.77069 | -52.51105 | 2319 ft | 209 kts | 174° |
| 2026-05-09 00:09 | -31.78394 | -52.50346 | 2405 ft | 218 kts | 151° |
| 2026-05-09 00:09 | -31.79520 | -52.49149 | 2348 ft | 223 kts | 123° |
| 2026-05-09 00:10 | -31.79748 | -52.47057 | 2380 ft | 173 kts | 83° |
| 2026-05-09 00:10 | -31.79674 | -52.46163 | 2379 ft | 152 kts | 83° |
| 2026-05-09 00:10 | -31.79254 | -52.44663 | 2393 ft | 146 kts | 64° |
| 2026-05-09 00:10 | -31.79008 | -52.43913 | 2394 ft | 146 kts | 65° |
| 2026-05-09 00:11 | -31.78638 | -52.42801 | 2387 ft | 144 kts | 64° |
| 2026-05-09 00:11 | -31.78057 | -52.41870 | 2407 ft | 143 kts | 46° |
| 2026-05-09 00:11 | -31.77479 | -52.40938 | 2357 ft | 145 kts | 47° |
| 2026-05-09 00:11 | -31.76834 | -52.40046 | 2187 ft | 142 kts | 42° |
| 2026-05-09 00:12 | -31.76164 | -52.39214 | 2008 ft | 140 kts | 41° |
| 2026-05-09 00:12 | -31.75497 | -52.38381 | 1712 ft | 139 kts | 43° |
| 2026-05-09 00:12 | -31.74870 | -52.37550 | 1423 ft | 134 kts | 49° |
| 2026-05-09 00:12 | -31.74319 | -52.36688 | 1131 ft | 132 kts | 53° |
| 2026-05-09 00:13 | -31.73778 | -52.35831 | 814 ft | 128 kts | 52° |
| 2026-05-09 00:13 | -31.73237 | -52.35011 | 526 ft | 126 kts | 51° |
| 2026-05-09 00:13 | -31.72688 | -52.34217 | 300 ft | 124 kts | 50° |
| 2026-05-09 00:13 | -31.72157 | -52.33434 | 109 ft | 121 kts | 51° |
| 2026-05-09 00:14 | -31.71673 | -52.32721 | 52 ft | 88 kts | 51° |
| 2026-05-09 00:14 | -31.71411 | -52.32337 | 56 ft | 43 kts | 52° |
| 2026-05-09 00:14 | -31.71275 | -52.32140 | 59 ft | 24 kts | 51° |
| 2026-05-09 00:14 | -31.71187 | -52.32002 | 58 ft | 10 kts | 355° |
| 2026-05-09 00:15 | -31.71191 | -52.32023 | 58 ft | 4 kts | 219° |
| 2026-05-09 00:15 | -31.71226 | -52.32064 | 54 ft | 10 kts | 227° |
| 2026-05-09 00:15 | -31.71283 | -52.32145 | 53 ft | 16 kts | 232° |
| 2026-05-09 00:15 | -31.71368 | -52.32273 | 60 ft | 23 kts | 232° |
| 2026-05-09 00:16 | -31.71481 | -52.32442 | 60 ft | 30 kts | 230° |
| 2026-05-09 00:16 | -31.71622 | -52.32643 | 56 ft | 33 kts | 231° |
| 2026-05-09 00:16 | -31.71761 | -52.32844 | 55 ft | 30 kts | 231° |
| 2026-05-09 00:16 | -31.71800 | -52.32965 | 55 ft | 13 kts | 300° |
| 2026-05-09 00:17 | -31.71732 | -52.33028 | 57 ft | 13 kts | 321° |
| 2026-05-09 00:17 | -31.71671 | -52.33031 | 59 ft | 9 kts | 41° |
| 2026-05-09 00:17 | -31.71629 | -52.32979 | 59 ft | 8 kts | 18° |
| 2026-05-09 00:17 | -31.71588 | -52.32993 | 59 ft | 5 kts | 13° |
| 2026-05-09 00:18 | -31.71576 | -52.32990 | 59 ft | 0 kts | 9° |